createdAt,value
2022-10-04T00:01:12.223Z,3.53
2022-10-04T00:03:44.959Z,2.80
2022-10-04T00:06:18.610Z,3.33
2022-10-04T00:08:49.898Z,3.00
2022-10-04T00:11:23.658Z,2.83
2022-10-04T00:13:59.142Z,3.20
2022-10-04T00:16:32.134Z,3.20
2022-10-04T00:19:27.061Z,3.23
2022-10-04T00:22:20.424Z,3.07
2022-10-04T00:25:19.201Z,3.03
2022-10-04T00:28:29.473Z,3.50
2022-10-04T00:31:19.204Z,3.40
2022-10-04T00:33:49.059Z,3.17
2022-10-04T00:36:53.155Z,3.27
2022-10-04T00:39:43.650Z,3.47
2022-10-04T00:42:33.514Z,3.60
2022-10-04T00:45:05.643Z,4.00
2022-10-04T00:47:40.034Z,3.70
2022-10-04T00:50:16.943Z,3.57
2022-10-04T00:52:48.468Z,3.17
2022-10-04T00:55:24.996Z,2.33
2022-10-04T00:57:59.337Z,3.43
2022-10-04T01:00:27.912Z,3.53
2022-10-04T01:03:02.332Z,3.27
2022-10-04T01:05:34.138Z,3.77
2022-10-04T01:08:09.493Z,3.93
2022-10-04T01:10:43.227Z,3.20
2022-10-04T01:13:14.899Z,3.03
2022-10-04T01:15:50.351Z,3.17
2022-10-04T01:18:30.229Z,3.77
2022-10-04T01:21:01.036Z,3.60
2022-10-04T01:23:42.846Z,3.37
2022-10-04T01:26:41.414Z,3.30
2022-10-04T01:29:15.283Z,3.47
2022-10-04T01:31:46.506Z,3.97
2022-10-04T01:34:16.454Z,3.77
2022-10-04T01:36:47.231Z,3.37
2022-10-04T01:39:18.283Z,3.00
2022-10-04T01:41:52.973Z,3.60
2022-10-04T01:44:31.269Z,3.73
2022-10-04T01:47:03.838Z,3.53
2022-10-04T01:49:42.985Z,3.33
2022-10-04T01:52:17.119Z,3.63
2022-10-04T01:54:51.103Z,2.97
2022-10-04T01:57:23.351Z,3.77
2022-10-04T01:59:55.400Z,3.50
2022-10-04T02:02:30.050Z,3.67
2022-10-04T02:05:00.452Z,2.93
2022-10-04T02:07:32.979Z,3.73
2022-10-04T02:10:06.121Z,3.13
2022-10-04T02:12:35.615Z,3.43
2022-10-04T02:15:08.005Z,2.90
2022-10-04T02:17:42.830Z,2.73
2022-10-04T02:20:15.127Z,2.63
2022-10-04T02:22:44.236Z,3.07
2022-10-04T02:25:19.502Z,3.30
2022-10-04T02:27:47.514Z,2.70
2022-10-04T02:30:15.472Z,2.50
2022-10-04T02:32:59.752Z,3.10
2022-10-04T02:35:31.398Z,3.10
2022-10-04T02:38:10.169Z,2.97
2022-10-04T02:40:45.951Z,2.80
2022-10-04T02:43:18.901Z,2.50
2022-10-04T02:45:51.906Z,3.20
2022-10-04T02:48:32.364Z,2.93
2022-10-04T02:51:12.730Z,2.93
2022-10-04T02:53:51.373Z,3.00
2022-10-04T02:56:22.228Z,3.03
2022-10-04T02:58:50.444Z,2.90
2022-10-04T03:01:26.909Z,2.73
2022-10-04T03:03:56.845Z,2.80
2022-10-04T03:06:29.931Z,2.70
2022-10-04T03:09:00.385Z,3.07
2022-10-04T03:11:34.806Z,3.13
2022-10-04T03:14:07.177Z,2.77
2022-10-04T03:16:37.371Z,2.27
2022-10-04T03:19:06.289Z,2.80
2022-10-04T03:21:34.996Z,2.97
2022-10-04T03:24:04.906Z,3.17
2022-10-04T03:26:39.864Z,2.47
2022-10-04T03:29:10.166Z,2.57
2022-10-04T03:31:44.089Z,2.57
2022-10-04T03:34:16.779Z,2.83
2022-10-04T03:36:47.341Z,3.17
2022-10-04T03:39:22.330Z,3.23
2022-10-04T03:41:51.757Z,2.83
2022-10-04T03:44:20.962Z,2.70
2022-10-04T03:46:49.155Z,3.10
2022-10-04T03:49:24.931Z,2.73
2022-10-04T03:51:53.844Z,2.53
2022-10-04T03:54:27.910Z,3.07
2022-10-04T03:56:58.005Z,3.00
2022-10-04T03:59:27.926Z,3.27
2022-10-04T04:02:06.005Z,2.63
2022-10-04T04:04:43.013Z,2.73
2022-10-04T04:07:19.829Z,2.77
2022-10-04T04:09:51.874Z,2.77
2022-10-04T04:12:25.329Z,2.30
2022-10-04T04:14:54.645Z,2.70
2022-10-04T04:17:38.073Z,3.00
2022-10-04T04:20:13.749Z,2.77
2022-10-04T04:22:46.551Z,2.50
2022-10-04T04:25:16.963Z,2.30
2022-10-04T04:27:50.281Z,2.40
2022-10-04T04:30:19.238Z,2.40
2022-10-04T04:32:52.572Z,2.30
2022-10-04T04:35:25.697Z,2.57
2022-10-04T04:38:15.837Z,2.83
2022-10-04T04:40:44.509Z,2.33
2022-10-04T04:43:19.784Z,2.43
2022-10-04T04:46:02.998Z,2.30
2022-10-04T04:48:38.471Z,2.57
2022-10-04T04:51:06.839Z,2.67
2022-10-04T04:53:34.735Z,2.77
2022-10-04T04:56:05.470Z,2.63
2022-10-04T04:58:37.399Z,2.40
2022-10-04T05:01:08.473Z,2.27
2022-10-04T05:03:36.540Z,2.10
2022-10-04T05:06:04.849Z,2.80
2022-10-04T05:08:41.517Z,2.20
2022-10-04T05:11:16.015Z,2.30
2022-10-04T05:13:49.839Z,2.67
2022-10-04T05:16:24.113Z,2.90
2022-10-04T05:19:04.432Z,3.37
2022-10-04T05:21:40.821Z,2.60
2022-10-04T05:24:12.667Z,3.60
2022-10-04T05:26:43.531Z,3.47
2022-10-04T05:29:18.177Z,2.90
2022-10-04T05:31:56.312Z,3.20
2022-10-04T05:34:32.419Z,2.37
2022-10-04T05:37:16.781Z,2.60
2022-10-04T05:40:05.995Z,3.43
2022-10-04T05:42:41.448Z,2.93
2022-10-04T05:45:20.057Z,3.80
2022-10-04T05:47:53.528Z,3.40
2022-10-04T05:50:29.729Z,3.80
2022-10-04T05:53:23.855Z,5.40
2022-10-04T05:56:05.473Z,4.80
2022-10-04T05:58:49.297Z,4.03
2022-10-04T06:01:29.122Z,2.70
2022-10-04T06:04:22.883Z,3.07
2022-10-04T06:06:56.021Z,3.23
2022-10-04T06:09:49.690Z,3.60
2022-10-04T06:12:30.063Z,3.47
2022-10-04T06:15:19.008Z,2.53
2022-10-04T06:18:35.214Z,2.80
2022-10-04T06:21:20.606Z,4.47
2022-10-04T06:23:56.134Z,5.60
2022-10-04T06:26:26.734Z,6.80
2022-10-04T06:28:58.776Z,4.23
2022-10-04T06:31:59.384Z,3.57
2022-10-04T06:34:55.581Z,3.73
2022-10-04T06:37:44.405Z,2.93
2022-10-04T06:40:48.618Z,3.13
2022-10-04T06:43:47.051Z,3.13
2022-10-04T06:46:20.358Z,3.47
2022-10-04T06:49:14.746Z,3.00
2022-10-04T06:52:01.957Z,3.47
2022-10-04T06:54:46.836Z,2.90
2022-10-04T06:57:34.500Z,3.03
2022-10-04T07:00:10.586Z,3.07
2022-10-04T07:02:43.991Z,2.30
2022-10-04T07:05:30.411Z,2.50
2022-10-04T07:08:10.736Z,3.30
2022-10-04T07:10:49.568Z,2.97
2022-10-04T07:13:33.714Z,2.60
2022-10-04T07:16:08.996Z,2.77
2022-10-04T07:18:44.764Z,2.70
2022-10-04T07:21:15.778Z,2.80
2022-10-04T07:23:51.463Z,3.00
2022-10-04T07:26:29.649Z,3.40
2022-10-04T07:29:18.544Z,2.70
2022-10-04T07:31:48.787Z,3.20
2022-10-04T07:34:21.853Z,2.87
2022-10-04T07:36:52.772Z,3.20
2022-10-04T07:39:26.432Z,3.70
2022-10-04T07:41:57.331Z,3.10
2022-10-04T07:44:35.727Z,3.00
2022-10-04T07:47:09.252Z,3.30
2022-10-04T07:49:39.580Z,2.97
2022-10-04T07:52:31.293Z,2.93
2022-10-04T07:55:12.967Z,3.50
2022-10-04T07:57:51.378Z,3.27
2022-10-04T08:00:22.854Z,3.10
2022-10-04T08:03:11.152Z,3.30
2022-10-04T08:05:42.639Z,3.37
2022-10-04T08:08:37.823Z,3.10
2022-10-04T08:11:30.107Z,3.40
2022-10-04T08:14:09.117Z,3.50
2022-10-04T08:16:44.992Z,3.13
2022-10-04T08:19:28.055Z,3.50
2022-10-04T08:22:02.968Z,3.10
2022-10-04T08:24:36.818Z,3.20
2022-10-04T08:27:29.966Z,3.00
2022-10-04T08:30:10.433Z,3.27
2022-10-04T08:32:55.730Z,2.87
2022-10-04T08:35:36.098Z,2.77
2022-10-04T08:38:31.685Z,2.80
2022-10-04T08:41:24.383Z,2.93
2022-10-04T08:44:37.244Z,2.90
2022-10-04T08:47:33.362Z,3.07
2022-10-04T08:50:33.445Z,2.63
2022-10-04T08:53:37.655Z,2.83
2022-10-04T08:56:14.575Z,3.07
2022-10-04T08:59:15.699Z,3.27
2022-10-04T09:02:20.743Z,3.00
2022-10-04T09:05:18.357Z,2.97
2022-10-04T09:08:30.025Z,2.77
2022-10-04T09:11:12.384Z,3.40
2022-10-04T09:13:48.875Z,3.47
2022-10-04T09:16:18.794Z,3.40
2022-10-04T09:19:20.920Z,3.40
2022-10-04T09:22:17.147Z,2.90
2022-10-04T09:25:18.579Z,3.13
2022-10-04T09:28:13.665Z,3.10
2022-10-04T09:30:55.602Z,3.37
2022-10-04T09:34:01.242Z,3.03
2022-10-04T09:37:10.527Z,2.90
2022-10-04T09:40:13.198Z,3.40
2022-10-04T09:43:02.201Z,3.13
2022-10-04T09:45:49.401Z,2.90
2022-10-04T09:48:30.044Z,2.80
2022-10-04T09:51:19.790Z,3.40
2022-10-04T09:54:01.413Z,3.13
2022-10-04T09:56:50.206Z,2.90
2022-10-04T09:59:58.860Z,2.87
2022-10-04T10:02:58.645Z,2.67
2022-10-04T10:05:44.267Z,3.03
2022-10-04T10:08:22.052Z,2.50
2022-10-04T10:11:19.261Z,2.87
2022-10-04T10:14:18.159Z,2.60
2022-10-04T10:17:00.909Z,2.33
2022-10-04T10:19:56.955Z,2.93
2022-10-04T10:23:00.476Z,2.60
2022-10-04T10:25:48.242Z,2.77
2022-10-04T10:28:45.368Z,2.50
2022-10-04T10:31:33.941Z,2.77
2022-10-04T10:34:25.263Z,2.90
2022-10-04T10:37:09.027Z,2.93
2022-10-04T10:40:16.879Z,2.33
2022-10-04T10:43:18.395Z,2.60
2022-10-04T10:45:58.845Z,2.33
2022-10-04T10:48:45.508Z,2.80
2022-10-04T10:51:20.433Z,2.70
2022-10-04T10:54:26.062Z,2.33
2022-10-04T10:57:04.469Z,2.67
2022-10-04T11:00:14.816Z,2.20
2022-10-04T11:03:32.282Z,2.37
2022-10-04T11:06:18.138Z,2.57
2022-10-04T11:09:18.031Z,2.43
2022-10-04T11:12:25.360Z,2.33
2022-10-04T11:15:51.560Z,2.70
2022-10-04T11:19:07.222Z,2.50
2022-10-04T11:22:26.058Z,2.43
2022-10-04T11:25:17.868Z,1.80
2022-10-04T11:27:57.440Z,1.70
2022-10-04T11:30:29.722Z,1.87
2022-10-04T11:33:37.008Z,1.83
2022-10-04T11:36:28.724Z,1.53
2022-10-04T11:39:13.662Z,1.53
2022-10-04T11:41:52.400Z,1.60
2022-10-04T11:45:02.382Z,1.70
2022-10-04T11:47:40.411Z,1.60
2022-10-04T11:50:29.966Z,2.10
2022-10-04T11:53:14.290Z,1.67
2022-10-04T11:56:14.349Z,1.70
2022-10-04T11:59:07.894Z,1.90
2022-10-04T12:02:02.780Z,1.73
2022-10-04T12:05:01.100Z,1.70
2022-10-04T12:07:46.053Z,1.60
2022-10-04T12:10:26.100Z,1.52
2022-10-04T12:13:24.435Z,1.60
2022-10-04T12:16:33.606Z,1.52
2022-10-04T12:19:27.826Z,1.80
2022-10-04T12:22:46.910Z,1.77
2022-10-04T12:25:37.461Z,1.70
2022-10-04T12:28:24.379Z,2.00
2022-10-04T12:31:12.344Z,1.73
2022-10-04T12:33:47.050Z,1.88
2022-10-04T12:36:31.324Z,1.75
2022-10-04T12:39:15.022Z,1.77
2022-10-04T12:41:51.822Z,2.10
2022-10-04T12:44:35.030Z,1.65
2022-10-04T12:47:51.875Z,1.77
2022-10-04T12:50:32.134Z,1.70
2022-10-04T12:53:14.394Z,1.60
2022-10-04T12:56:00.577Z,1.63
2022-10-04T12:58:43.182Z,2.08
2022-10-04T13:01:18.689Z,1.90
2022-10-04T13:04:08.604Z,1.98
2022-10-04T13:06:51.066Z,2.00
2022-10-04T13:09:27.102Z,1.85
2022-10-04T13:12:06.732Z,2.03
2022-10-04T13:15:06.909Z,1.80
2022-10-04T13:17:44.234Z,1.83
2022-10-04T13:20:32.225Z,2.00
2022-10-04T13:23:09.144Z,2.22
2022-10-04T13:26:00.008Z,1.80
2022-10-04T13:28:39.870Z,2.38
2022-10-04T13:31:14.410Z,1.98
2022-10-04T13:33:48.513Z,1.83
2022-10-04T13:36:25.082Z,1.92
2022-10-04T13:39:24.604Z,2.25
2022-10-04T13:42:12.261Z,1.85
2022-10-04T13:44:57.407Z,1.70
2022-10-04T13:47:48.895Z,1.98
2022-10-04T13:50:36.718Z,1.80
2022-10-04T13:53:35.285Z,1.83
2022-10-04T13:56:29.740Z,1.92
2022-10-04T13:59:05.204Z,2.05
2022-10-04T14:02:12.625Z,1.80
2022-10-04T14:05:15.514Z,1.63
2022-10-04T14:08:12.093Z,2.15
2022-10-04T14:11:16.764Z,2.10
2022-10-04T14:14:19.795Z,1.85
2022-10-04T14:17:33.504Z,1.83
2022-10-04T14:20:45.279Z,2.10
2022-10-04T14:23:34.261Z,1.80
2022-10-04T14:26:31.560Z,1.48
2022-10-04T14:29:35.970Z,1.48
2022-10-04T14:32:46.846Z,1.60
2022-10-04T14:35:23.232Z,1.77
2022-10-04T14:38:27.502Z,1.60
2022-10-04T14:41:30.604Z,1.77
2022-10-04T14:44:30.763Z,1.80
2022-10-04T14:47:19.380Z,1.98
2022-10-04T14:50:09.176Z,1.42
2022-10-04T14:52:50.112Z,1.90
2022-10-04T14:55:33.423Z,1.90
2022-10-04T14:58:17.203Z,1.90
2022-10-04T15:01:16.241Z,1.90
2022-10-04T15:03:56.072Z,1.77
2022-10-04T15:06:39.976Z,1.70
2022-10-04T15:09:42.639Z,1.90
2022-10-04T15:13:09.948Z,1.60
2022-10-04T15:15:54.165Z,2.00
2022-10-04T15:18:33.899Z,1.90
2022-10-04T15:21:06.587Z,2.37
2022-10-04T15:23:39.848Z,1.67
2022-10-04T15:26:51.418Z,1.80
2022-10-04T15:29:27.038Z,2.00
2022-10-04T15:32:07.287Z,2.10
2022-10-04T15:34:46.839Z,1.83
2022-10-04T15:37:26.418Z,2.23
2022-10-04T15:40:26.437Z,2.77
2022-10-04T15:43:27.192Z,2.37
2022-10-04T15:46:19.522Z,2.10
2022-10-04T15:49:20.588Z,2.60
2022-10-04T15:52:21.434Z,2.47
2022-10-04T15:55:30.876Z,1.97
2022-10-04T15:58:33.294Z,1.87
2022-10-04T16:01:24.183Z,1.73
2022-10-04T16:04:25.238Z,1.80
2022-10-04T16:06:57.643Z,2.13
2022-10-04T16:09:39.137Z,1.80
2022-10-04T16:12:26.249Z,2.00
2022-10-04T16:15:01.204Z,1.70
2022-10-04T16:18:02.660Z,2.23
2022-10-04T16:20:56.982Z,2.03
2022-10-04T16:23:31.385Z,1.73
2022-10-04T16:26:01.572Z,2.30
2022-10-04T16:28:53.402Z,2.90
2022-10-04T16:31:38.253Z,2.40
2022-10-04T16:34:33.491Z,2.23
2022-10-04T16:37:16.283Z,2.10
2022-10-04T16:40:05.901Z,2.00
2022-10-04T16:42:48.963Z,1.87
2022-10-04T16:45:43.976Z,2.10
2022-10-04T16:48:26.404Z,2.33
2022-10-04T16:51:27.041Z,2.20
2022-10-04T16:54:00.520Z,2.40
2022-10-04T16:56:32.895Z,2.30
2022-10-04T16:59:03.433Z,1.93
2022-10-04T17:02:00.167Z,2.00
2022-10-04T17:04:56.682Z,2.20
2022-10-04T17:07:36.487Z,2.13
2022-10-04T17:10:21.085Z,2.00
2022-10-04T17:12:57.191Z,2.27
2022-10-04T17:15:47.749Z,1.97
2022-10-04T17:18:27.029Z,2.53
2022-10-04T17:21:02.520Z,2.70
2022-10-04T17:23:54.603Z,2.17
2022-10-04T17:26:43.090Z,2.47
2022-10-04T17:29:33.312Z,2.10
2022-10-04T17:32:26.088Z,2.70
2022-10-04T17:35:12.090Z,2.70
2022-10-04T17:37:47.971Z,2.90
2022-10-04T17:40:38.415Z,2.50
2022-10-04T17:43:17.302Z,2.70
2022-10-04T17:46:01.184Z,2.93
2022-10-04T17:48:48.863Z,2.90
2022-10-04T17:51:52.284Z,2.63
2022-10-04T17:54:44.717Z,3.07
2022-10-04T17:57:25.217Z,3.80
2022-10-04T17:59:58.552Z,3.30
2022-10-04T18:02:42.281Z,3.80
2022-10-04T18:05:18.581Z,3.30
2022-10-04T18:07:54.930Z,3.13
2022-10-04T18:10:28.857Z,3.00
2022-10-04T18:13:01.921Z,3.23
2022-10-04T18:15:33.456Z,2.60
2022-10-04T18:18:18.750Z,2.50
2022-10-04T18:21:05.177Z,2.73
2022-10-04T18:23:36.877Z,2.60
2022-10-04T18:26:11.792Z,2.53
2022-10-04T18:28:41.179Z,2.07
2022-10-04T18:31:23.919Z,2.67
2022-10-04T18:33:53.901Z,3.60
2022-10-04T18:36:24.696Z,5.03
2022-10-04T18:39:20.076Z,3.83
2022-10-04T18:41:59.667Z,2.90
2022-10-04T18:44:31.176Z,3.30
2022-10-04T18:47:02.205Z,2.30
2022-10-04T18:49:32.869Z,2.50
2022-10-04T18:52:16.114Z,2.57
2022-10-04T18:54:50.740Z,2.80
2022-10-04T18:57:34.801Z,2.67
2022-10-04T19:00:28.783Z,2.50
2022-10-04T19:03:08.522Z,2.27
2022-10-04T19:05:41.773Z,2.47
2022-10-04T19:08:25.204Z,2.50
2022-10-04T19:10:57.872Z,2.80
2022-10-04T19:13:35.073Z,2.73
2022-10-04T19:16:16.469Z,2.63
2022-10-04T19:19:07.334Z,2.80
2022-10-04T19:21:45.521Z,2.70
2022-10-04T19:24:41.868Z,2.50
2022-10-04T19:27:21.507Z,2.93
2022-10-04T19:30:03.683Z,2.63
2022-10-04T19:32:43.918Z,2.80
2022-10-04T19:35:23.628Z,2.43
2022-10-04T19:38:00.120Z,3.00
2022-10-04T19:40:38.806Z,2.40
2022-10-04T19:43:11.483Z,2.90
2022-10-04T19:45:45.697Z,2.90
2022-10-04T19:48:24.247Z,3.30
2022-10-04T19:50:59.527Z,2.90
2022-10-04T19:53:36.967Z,2.90
2022-10-04T19:56:10.397Z,3.00
2022-10-04T19:58:41.835Z,2.63
2022-10-04T20:01:12.699Z,3.30
2022-10-04T20:03:42.097Z,3.60
2022-10-04T20:06:11.375Z,3.47
2022-10-04T20:09:02.277Z,3.37
2022-10-04T20:11:49.475Z,3.50
2022-10-04T20:14:47.043Z,3.33
2022-10-04T20:17:33.158Z,3.70
2022-10-04T20:20:10.945Z,3.20
2022-10-04T20:23:00.727Z,3.03
2022-10-04T20:26:02.348Z,3.20
2022-10-04T20:28:44.071Z,3.37
2022-10-04T20:31:28.086Z,2.60
2022-10-04T20:33:55.996Z,2.77
2022-10-04T20:36:55.510Z,3.30
2022-10-04T20:40:00.232Z,2.57
2022-10-04T20:42:31.713Z,2.70
2022-10-04T20:45:02.199Z,2.70
2022-10-04T20:47:40.160Z,2.53
2022-10-04T20:50:27.001Z,3.23
2022-10-04T20:52:59.221Z,2.47
2022-10-04T20:55:29.391Z,2.67
2022-10-04T20:58:02.586Z,2.80
2022-10-04T21:00:37.018Z,2.77
2022-10-04T21:03:09.795Z,3.17
2022-10-04T21:05:38.467Z,2.80
2022-10-04T21:08:23.165Z,2.70
2022-10-04T21:11:27.446Z,2.60
2022-10-04T21:13:57.886Z,2.90
2022-10-04T21:16:47.107Z,3.03
2022-10-04T21:19:46.210Z,3.03
2022-10-04T21:22:35.366Z,3.37
2022-10-04T21:25:24.582Z,3.23
2022-10-04T21:27:52.486Z,2.90
2022-10-04T21:30:20.765Z,3.30
2022-10-04T21:32:48.684Z,3.30
2022-10-04T21:35:16.586Z,2.97
2022-10-04T21:37:44.477Z,3.40
2022-10-04T21:40:14.662Z,3.83
2022-10-04T21:42:42.517Z,2.93
2022-10-04T21:45:11.179Z,3.63
2022-10-04T21:47:39.063Z,3.87
2022-10-04T21:50:07.561Z,3.80
2022-10-04T21:52:35.459Z,4.33
2022-10-04T21:55:03.333Z,2.90
2022-10-04T21:57:35.662Z,2.77
2022-10-04T22:00:05.178Z,3.00
2022-10-04T22:02:33.037Z,3.37
2022-10-04T22:05:00.936Z,2.57
2022-10-04T22:07:28.985Z,3.60
2022-10-04T22:09:56.803Z,3.47
2022-10-04T22:12:24.608Z,3.33
2022-10-04T22:14:53.853Z,3.60
2022-10-04T22:17:21.739Z,3.63
2022-10-04T22:19:49.774Z,3.07
2022-10-04T22:22:18.299Z,3.43
2022-10-04T22:24:46.293Z,3.93
2022-10-04T22:27:15.907Z,3.43
2022-10-04T22:29:44.518Z,3.57
2022-10-04T22:32:22.661Z,3.20
2022-10-04T22:34:51.295Z,3.00
2022-10-04T22:37:24.950Z,3.23
2022-10-04T22:39:53.640Z,3.53
2022-10-04T22:42:25.730Z,3.57
2022-10-04T22:44:53.591Z,3.30
2022-10-04T22:47:24.117Z,3.40
2022-10-04T22:49:54.076Z,4.00
2022-10-04T22:52:24.182Z,3.40
2022-10-04T22:54:54.190Z,3.50
2022-10-04T22:57:22.435Z,3.40
2022-10-04T22:59:51.777Z,3.40
2022-10-04T23:02:24.022Z,3.80
2022-10-04T23:04:53.418Z,3.20
2022-10-04T23:07:21.706Z,3.30
2022-10-04T23:09:50.083Z,3.40
2022-10-04T23:12:18.013Z,3.53
2022-10-04T23:14:45.925Z,3.43
2022-10-04T23:17:23.974Z,3.77
2022-10-04T23:19:55.158Z,3.17
2022-10-04T23:22:28.624Z,3.67
2022-10-04T23:24:57.613Z,3.70
2022-10-04T23:27:25.466Z,3.90
2022-10-04T23:29:59.226Z,4.27
2022-10-04T23:32:28.709Z,3.83
2022-10-04T23:34:57.177Z,3.77
2022-10-04T23:37:28.287Z,3.67
2022-10-04T23:39:56.353Z,3.50
2022-10-04T23:42:29.564Z,3.80
2022-10-04T23:44:58.721Z,3.60
2022-10-04T23:47:35.941Z,3.97
2022-10-04T23:50:17.383Z,3.80
2022-10-04T23:52:46.093Z,4.00
2022-10-04T23:55:18.118Z,3.67
2022-10-04T23:57:46.762Z,3.50
